createdAt,value
2018-09-29T00:00:17.288Z,100992.72
2018-09-29T00:02:44.904Z,100994.86
2018-09-29T00:05:12.566Z,101002.96
2018-09-29T00:07:40.290Z,101003.12
2018-09-29T00:10:07.961Z,101000.63
2018-09-29T00:12:35.584Z,101007.89
2018-09-29T00:15:03.350Z,100996.20
2018-09-29T00:17:31.002Z,100994.27
2018-09-29T00:19:58.696Z,100991.50
2018-09-29T00:22:26.377Z,100987.86
2018-09-29T00:24:54.037Z,100988.77
2018-09-29T00:27:21.675Z,100987.13
2018-09-29T00:29:49.336Z,100991.56
2018-09-29T00:32:16.959Z,100984.73
2018-09-29T00:34:44.671Z,100982.64
2018-09-29T00:37:12.370Z,100979.47
2018-09-29T00:39:40.055Z,100977.78
2018-09-29T00:42:07.759Z,100982.36
2018-09-29T00:44:35.426Z,100993.41
2018-09-29T00:47:03.102Z,101001.52
2018-09-29T00:49:30.815Z,101002.64
2018-09-29T00:51:58.474Z,100998.24
2018-09-29T00:54:26.181Z,101004.03
2018-09-29T00:56:53.935Z,100998.33
2018-09-29T00:59:21.602Z,101001.42
2018-09-29T01:01:49.347Z,101013.09
2018-09-29T01:04:17.035Z,101025.09
2018-09-29T01:06:44.694Z,101020.26
2018-09-29T01:09:12.296Z,101015.73
2018-09-29T01:11:39.926Z,101014.53
2018-09-29T01:14:08.035Z,101012.91
2018-09-29T01:16:35.649Z,101017.23
2018-09-29T01:19:03.405Z,101014.62
2018-09-29T01:21:31.068Z,101012.20
2018-09-29T01:23:58.731Z,101016.03
2018-09-29T01:26:26.382Z,101014.66
2018-09-29T01:28:54.077Z,101016.88
2018-09-29T01:31:21.749Z,101015.19
2018-09-29T01:33:49.390Z,101012.52
2018-09-29T01:36:17.090Z,101022.86
2018-09-29T01:38:44.809Z,101023.41
2018-09-29T01:41:12.479Z,101027.11
2018-09-29T01:43:40.113Z,101023.11
2018-09-29T01:46:07.887Z,101032.84
2018-09-29T01:48:35.646Z,101031.27
2018-09-29T01:51:03.337Z,101035.55
2018-09-29T01:53:30.943Z,101031.59
2018-09-29T01:55:58.661Z,101037.28
2018-09-29T01:58:26.316Z,101033.68
2018-09-29T02:00:53.945Z,101036.99
2018-09-29T02:03:21.661Z,101038.94
2018-09-29T02:05:49.329Z,101037.30
2018-09-29T02:08:16.996Z,101034.23
2018-09-29T02:10:44.685Z,101040.05
2018-09-29T02:13:12.298Z,101033.62
2018-09-29T02:15:39.910Z,101024.85
2018-09-29T02:18:07.588Z,101024.59
2018-09-29T02:20:35.288Z,101023.80
2018-09-29T02:23:02.874Z,101028.05
2018-09-29T02:25:30.521Z,101020.34
2018-09-29T02:27:58.228Z,101019.83
2018-09-29T02:30:25.857Z,101017.28
2018-09-29T02:32:53.493Z,101020.98
2018-09-29T02:35:21.099Z,101022.47
2018-09-29T02:37:48.767Z,101023.32
2018-09-29T02:40:16.428Z,101023.42
2018-09-29T02:42:44.112Z,101027.91
2018-09-29T02:45:11.839Z,101033.14
2018-09-29T02:47:39.500Z,101032.52
2018-09-29T02:50:07.205Z,101032.92
2018-09-29T02:52:35.084Z,101037.50
2018-09-29T02:55:02.952Z,101037.88
2018-09-29T02:57:30.752Z,101040.73
2018-09-29T02:59:59.749Z,101037.16
2018-09-29T03:02:27.484Z,101037.73
2018-09-29T03:07:29.449Z,101039.58
2018-09-29T03:09:57.158Z,101039.13
2018-09-29T03:12:24.785Z,101031.14
2018-09-29T03:14:52.418Z,101037.60
2018-09-29T03:17:20.082Z,101036.20
2018-09-29T03:19:47.746Z,101044.91
2018-09-29T03:22:15.412Z,101041.19
2018-09-29T03:24:43.027Z,101047.73
2018-09-29T03:27:10.630Z,101044.50
2018-09-29T03:29:38.228Z,101052.19
2018-09-29T03:32:05.890Z,101051.97
2018-09-29T03:34:33.556Z,101056.89
2018-09-29T03:37:01.256Z,101054.52
2018-09-29T03:39:28.879Z,101064.83
2018-09-29T03:41:56.741Z,101072.77
2018-09-29T03:44:24.403Z,101070.84
2018-09-29T03:46:52.077Z,101074.30
2018-09-29T03:49:19.705Z,101075.67
2018-09-29T03:51:47.391Z,101073.75
2018-09-29T03:54:15.059Z,101067.16
2018-09-29T03:56:42.701Z,101073.39
2018-09-29T03:59:10.379Z,101077.06
2018-09-29T04:01:38.056Z,101078.64
2018-09-29T04:04:05.906Z,101082.98
2018-09-29T04:06:33.576Z,101085.80
2018-09-29T04:09:01.226Z,101087.39
2018-09-29T04:11:28.915Z,101086.23
2018-09-29T04:13:56.576Z,101088.55
2018-09-29T04:16:24.200Z,101087.84
2018-09-29T04:18:51.816Z,101092.59
2018-09-29T04:21:19.527Z,101098.02
2018-09-29T04:23:47.183Z,101098.02
2018-09-29T04:26:14.886Z,101102.28
2018-09-29T04:28:42.546Z,101099.41
2018-09-29T04:31:10.258Z,101109.08
2018-09-29T04:33:38.032Z,101110.16
2018-09-29T04:36:05.689Z,101104.07
2018-09-29T04:38:33.344Z,101111.91
2018-09-29T04:41:00.994Z,101114.72
2018-09-29T04:43:28.834Z,101118.42
2018-09-29T04:45:56.541Z,101122.72
2018-09-29T04:48:24.206Z,101125.77
2018-09-29T04:50:51.867Z,101129.71
2018-09-29T04:53:19.543Z,101130.48
2018-09-29T04:55:47.235Z,101132.76
2018-09-29T04:58:15.043Z,101134.42
2018-09-29T05:00:42.706Z,101131.20
2018-09-29T05:03:10.397Z,101134.26
2018-09-29T05:05:38.078Z,101137.67
2018-09-29T05:08:06.013Z,101137.63
2018-09-29T05:10:33.657Z,101146.24
2018-09-29T05:13:01.291Z,101143.96
2018-09-29T05:15:29.059Z,101152.48
2018-09-29T05:17:56.675Z,101152.19
2018-09-29T05:20:24.270Z,101152.09
2018-09-29T05:22:51.897Z,101150.95
2018-09-29T05:25:19.572Z,101156.53
2018-09-29T05:27:47.220Z,101161.97
2018-09-29T05:30:14.861Z,101161.73
2018-09-29T05:32:42.701Z,101168.07
2018-09-29T05:35:10.395Z,101172.20
2018-09-29T05:37:38.031Z,101171.48
2018-09-29T05:40:05.715Z,101173.41
2018-09-29T05:42:33.391Z,101174.86
2018-09-29T05:45:01.127Z,101177.86
2018-09-29T05:47:28.806Z,101182.24
2018-09-29T05:49:56.571Z,101182.96
2018-09-29T05:52:24.215Z,101177.62
2018-09-29T05:54:51.906Z,101172.87
2018-09-29T05:57:19.627Z,101167.10
2018-09-29T05:59:47.282Z,101171.38
2018-09-29T06:02:14.970Z,101164.97
2018-09-29T06:04:42.748Z,101170.48
2018-09-29T06:07:10.457Z,101165.66
2018-09-29T06:09:38.035Z,101164.50
2018-09-29T06:12:05.724Z,101167.50
2018-09-29T06:14:33.384Z,101171.76
2018-09-29T06:17:01.182Z,101176.40
2018-09-29T06:19:28.844Z,101173.48
2018-09-29T06:21:56.514Z,101172.60
2018-09-29T06:24:24.208Z,101177.16
2018-09-29T06:26:51.870Z,101171.66
2018-09-29T06:29:19.590Z,101175.33
2018-09-29T06:31:47.228Z,101178.16
2018-09-29T06:34:14.996Z,101168.94
2018-09-29T06:36:42.617Z,101181.52
2018-09-29T06:39:11.192Z,101183.69
2018-09-29T06:41:38.882Z,101179.86
2018-09-29T06:44:06.560Z,101188.77
2018-09-29T06:46:34.282Z,101184.52
2018-09-29T06:49:03.057Z,101192.67
2018-09-29T06:51:30.918Z,101193.48
2018-09-29T06:53:58.604Z,101201.36
2018-09-29T06:56:26.245Z,101212.58
2018-09-29T06:58:53.911Z,101219.73
2018-09-29T07:01:21.644Z,101224.63
2018-09-29T07:03:49.271Z,101231.02
2018-09-29T07:06:16.957Z,101220.22
2018-09-29T07:08:44.671Z,101222.08
2018-09-29T07:11:12.367Z,101229.33
2018-09-29T07:13:40.083Z,101233.58
2018-09-29T07:16:07.692Z,101231.34
2018-09-29T07:18:35.477Z,101236.03
2018-09-29T07:21:03.206Z,101235.99
2018-09-29T07:23:30.862Z,101232.92
2018-09-29T07:25:58.561Z,101237.45
2018-09-29T07:28:27.425Z,101237.81
2018-09-29T07:30:55.044Z,101244.05
2018-09-29T07:33:22.699Z,101246.49
2018-09-29T07:35:50.347Z,101242.83
2018-09-29T07:38:17.981Z,101236.55
2018-09-29T07:40:45.806Z,101240.59
2018-09-29T07:43:13.553Z,101242.11
2018-09-29T07:45:41.166Z,101249.16
2018-09-29T07:48:08.834Z,101245.94
2018-09-29T07:50:36.454Z,101237.95
2018-09-29T07:53:04.085Z,101241.22
2018-09-29T07:55:31.754Z,101238.51
2018-09-29T07:57:59.385Z,101240.39
2018-09-29T08:00:27.074Z,101243.85
2018-09-29T08:02:54.751Z,101242.23
2018-09-29T08:05:22.447Z,101246.38
2018-09-29T08:07:50.131Z,101248.39
2018-09-29T08:10:17.839Z,101251.11
2018-09-29T08:12:45.464Z,101251.58
2018-09-29T08:15:13.195Z,101258.15
2018-09-29T08:17:40.967Z,101247.40
2018-09-29T08:20:08.699Z,101251.39
2018-09-29T08:22:36.327Z,101259.63
2018-09-29T08:25:04.105Z,101251.64
2018-09-29T08:27:31.688Z,101255.20
2018-09-29T08:29:59.490Z,101248.56
2018-09-29T08:32:27.196Z,101254.20
2018-09-29T08:34:54.813Z,101261.53
2018-09-29T08:37:22.474Z,101249.14
2018-09-29T08:39:50.097Z,101258.32
2018-09-29T08:42:17.722Z,101255.33
2018-09-29T08:44:45.550Z,101254.20
2018-09-29T08:47:13.244Z,101249.88
2018-09-29T08:49:40.914Z,101252.72
2018-09-29T08:52:08.629Z,101245.46
2018-09-29T08:54:36.412Z,101237.22
2018-09-29T08:57:04.604Z,101242.07
2018-09-29T08:59:32.597Z,101232.56
2018-09-29T09:02:00.451Z,101235.56
2018-09-29T09:04:28.110Z,101225.60
2018-09-29T09:06:55.962Z,101225.59
2018-09-29T09:09:25.785Z,101214.64
2018-09-29T09:11:53.484Z,101214.33
2018-09-29T09:14:21.222Z,101220.08
2018-09-29T09:16:48.957Z,101224.88
2018-09-29T09:19:16.649Z,101224.88
2018-09-29T09:21:44.559Z,101231.34
2018-09-29T09:24:12.255Z,101233.64
2018-09-29T09:26:39.896Z,101232.05
2018-09-29T09:29:07.605Z,101240.19
2018-09-29T09:31:35.421Z,101233.84
2018-09-29T09:34:03.076Z,101239.30
2018-09-29T09:36:30.796Z,101233.08
2018-09-29T09:38:58.575Z,101229.92
2018-09-29T09:41:26.309Z,101231.75
2018-09-29T09:43:54.008Z,101227.25
2018-09-29T09:46:21.696Z,101223.42
2018-09-29T09:48:49.457Z,101224.33
2018-09-29T09:51:17.223Z,101222.50
2018-09-29T09:53:44.954Z,101219.72
2018-09-29T09:56:12.727Z,101220.41
2018-09-29T09:58:40.371Z,101215.92
2018-09-29T10:01:13.845Z,101217.23
2018-09-29T10:03:41.540Z,101221.81
2018-09-29T10:06:09.249Z,101217.94
2018-09-29T10:08:36.853Z,101219.30
2018-09-29T10:11:04.568Z,101225.86
2018-09-29T10:13:32.335Z,101221.97
2018-09-29T10:15:59.964Z,101221.75
2018-09-29T10:18:27.760Z,101223.97
2018-09-29T10:20:55.499Z,101219.42
2018-09-29T10:23:23.284Z,101223.42
2018-09-29T10:25:50.947Z,101227.24
2018-09-29T10:28:20.198Z,101212.08
2018-09-29T10:30:50.690Z,101221.27
2018-09-29T10:33:18.431Z,101220.66
2018-09-29T10:35:46.014Z,101220.89
2018-09-29T10:38:13.736Z,101223.42
2018-09-29T10:40:41.411Z,101211.87
2018-09-29T10:43:09.151Z,101210.24
2018-09-29T10:45:36.933Z,101212.60
2018-09-29T10:48:04.801Z,101217.34
2018-09-29T10:50:32.605Z,101209.91
2018-09-29T10:53:00.409Z,101216.34
2018-09-29T10:55:28.081Z,101218.42
2018-09-29T10:57:55.804Z,101214.79
2018-09-29T11:00:23.654Z,101222.15
2018-09-29T11:02:51.316Z,101214.48
2018-09-29T11:05:19.075Z,101212.70
2018-09-29T11:07:46.772Z,101205.36
2018-09-29T11:10:14.409Z,101201.73
2018-09-29T11:12:42.064Z,101197.05
2018-09-29T11:15:09.722Z,101182.13
2018-09-29T11:17:37.415Z,101174.25
2018-09-29T11:20:05.097Z,101178.42
2018-09-29T11:22:32.841Z,101169.58
2018-09-29T11:25:00.549Z,101164.59
2018-09-29T11:27:28.402Z,101159.97
2018-09-29T11:29:56.296Z,101169.96
2018-09-29T11:32:23.961Z,101163.40
2018-09-29T11:34:53.155Z,101163.02
2018-09-29T11:37:23.111Z,101166.47
2018-09-29T11:39:53.861Z,101157.48
2018-09-29T11:42:23.103Z,101160.60
2018-09-29T11:44:52.524Z,101162.20
2018-09-29T11:47:21.883Z,101154.17
2018-09-29T11:49:50.966Z,101148.19
2018-09-29T11:52:19.971Z,101156.91
2018-09-29T11:54:49.644Z,101155.72
2018-09-29T11:57:19.270Z,101152.05
2018-09-29T11:59:48.784Z,101154.11
2018-09-29T12:02:18.308Z,101154.14
2018-09-29T12:04:47.793Z,101158.02
2018-09-29T12:07:17.141Z,101149.81
2018-09-29T12:09:46.751Z,101143.02
2018-09-29T12:12:16.463Z,101138.41
2018-09-29T12:14:46.209Z,101142.40
2018-09-29T12:17:42.595Z,101141.55
2018-09-29T12:22:50.780Z,101146.98
2018-09-29T12:25:20.370Z,101136.77
2018-09-29T12:27:49.356Z,101144.22
2018-09-29T12:30:18.550Z,101139.38
2018-09-29T12:32:48.200Z,101130.16
2018-09-29T12:35:15.988Z,101128.72
2018-09-29T12:37:43.845Z,101119.05
2018-09-29T12:40:11.481Z,101121.42
2018-09-29T12:42:39.150Z,101113.02
2018-09-29T12:45:06.900Z,101104.52
2018-09-29T12:47:34.607Z,101107.10
2018-09-29T12:50:02.294Z,101106.11
2018-09-29T12:52:29.994Z,101099.83
2018-09-29T12:54:57.761Z,101106.06
2018-09-29T12:57:25.539Z,101099.21
2018-09-29T12:59:53.577Z,101100.03
2018-09-29T13:02:21.335Z,101098.55
2018-09-29T13:04:49.163Z,101091.77
2018-09-29T13:07:16.825Z,101076.30
2018-09-29T13:09:44.450Z,101082.30
2018-09-29T13:12:12.125Z,101080.04
2018-09-29T13:14:39.746Z,101079.12
2018-09-29T13:17:07.515Z,101060.78
2018-09-29T13:19:35.211Z,101059.89
2018-09-29T13:22:02.905Z,101062.11
2018-09-29T13:24:30.675Z,101046.50
2018-09-29T13:26:58.997Z,101037.71
2018-09-29T13:29:26.801Z,101046.52
2018-09-29T13:31:54.622Z,101039.36
2018-09-29T13:34:22.277Z,101044.94
2018-09-29T13:36:50.035Z,101036.95
2018-09-29T13:41:57.779Z,101032.87
2018-09-29T13:44:25.525Z,101033.92
2018-09-29T13:46:53.370Z,101026.77
2018-09-29T13:49:21.291Z,101019.36
2018-09-29T13:51:49.152Z,101019.90
2018-09-29T13:54:16.965Z,101026.20
2018-09-29T13:56:44.906Z,101020.77
2018-09-29T13:59:12.786Z,101023.31
2018-09-29T14:01:40.559Z,101023.70
2018-09-29T14:04:08.359Z,101024.09
2018-09-29T14:06:36.163Z,101027.77
2018-09-29T14:09:07.169Z,101021.56
2018-09-29T14:11:34.915Z,101024.81
2018-09-29T14:14:02.955Z,101022.86
2018-09-29T14:16:31.775Z,101020.67
2018-09-29T14:18:59.437Z,101018.22
2018-09-29T14:21:27.248Z,101015.45
2018-09-29T14:23:54.957Z,101016.89
2018-09-29T14:26:22.611Z,101018.92
2018-09-29T14:28:50.409Z,101011.23
2018-09-29T14:31:18.116Z,101005.50
2018-09-29T14:33:45.774Z,101012.24
2018-09-29T14:36:13.755Z,101011.46
2018-09-29T14:38:41.400Z,101006.30
2018-09-29T14:41:09.141Z,101002.95
2018-09-29T14:43:36.913Z,100989.89
2018-09-29T14:46:04.715Z,101003.56
2018-09-29T14:48:32.365Z,100988.18
2018-09-29T14:51:00.069Z,100986.64
2018-09-29T14:53:28.326Z,100994.21
2018-09-29T14:55:56.083Z,100989.06
2018-09-29T14:58:23.815Z,100978.64
2018-09-29T15:00:51.487Z,100980.41
2018-09-29T15:03:19.145Z,100985.62
2018-09-29T15:05:53.745Z,100977.75
2018-09-29T15:08:21.364Z,100973.34
2018-09-29T15:10:49.027Z,100969.14
2018-09-29T15:13:16.690Z,100948.09
2018-09-29T15:15:44.455Z,100960.95
2018-09-29T15:18:12.181Z,100954.69
2018-09-29T15:20:39.883Z,100955.72
2018-09-29T15:23:07.646Z,100949.55
2018-09-29T15:25:35.407Z,100940.31
2018-09-29T15:28:03.100Z,100938.58
2018-09-29T15:30:30.788Z,100945.46
2018-09-29T15:32:58.477Z,100938.70
2018-09-29T15:35:26.201Z,100933.40
2018-09-29T15:37:53.880Z,100929.07
2018-09-29T15:40:21.586Z,100927.02
2018-09-29T15:42:49.453Z,100918.54
2018-09-29T15:45:16.991Z,100917.41
2018-09-29T15:47:44.736Z,100909.83
2018-09-29T15:50:12.491Z,100912.89
2018-09-29T15:52:40.224Z,100911.59
2018-09-29T15:55:07.994Z,100910.95
2018-09-29T15:57:35.610Z,100901.60
2018-09-29T16:00:03.514Z,100906.28
2018-09-29T16:02:31.259Z,100902.22
2018-09-29T16:04:58.942Z,100897.69
2018-09-29T16:07:26.649Z,100894.09
2018-09-29T16:09:54.481Z,100893.39
2018-09-29T16:12:22.147Z,100892.84
2018-09-29T16:14:49.895Z,100887.71
2018-09-29T16:17:17.605Z,100880.62
2018-09-29T16:19:45.321Z,100877.79
2018-09-29T16:22:13.022Z,100877.28
2018-09-29T16:24:40.807Z,100875.16
2018-09-29T16:27:08.641Z,100877.39
2018-09-29T16:29:36.495Z,100868.20
2018-09-29T16:32:04.313Z,100870.13
2018-09-29T16:34:32.028Z,100865.36
2018-09-29T16:36:59.756Z,100862.73
2018-09-29T16:39:27.479Z,100822.49
2018-09-29T16:41:55.239Z,100870.84
2018-09-29T16:44:22.976Z,100871.87
2018-09-29T16:46:50.844Z,100866.26
2018-09-29T16:49:18.510Z,100871.86
2018-09-29T16:51:46.367Z,100866.95
2018-09-29T16:54:14.052Z,100861.96
2018-09-29T16:56:41.745Z,100867.70
2018-09-29T16:59:09.621Z,100861.95
2018-09-29T17:01:37.330Z,100866.95
2018-09-29T17:04:05.485Z,100873.07
2018-09-29T17:06:33.085Z,100871.91
2018-09-29T17:09:00.834Z,100868.13
2018-09-29T17:11:28.512Z,100868.59
2018-09-29T17:13:56.227Z,100872.25
2018-09-29T17:16:23.890Z,100870.94
2018-09-29T17:18:51.727Z,100871.91
2018-09-29T17:21:19.408Z,100874.05
2018-09-29T17:23:47.095Z,100873.63
2018-09-29T17:26:14.799Z,100873.77
2018-09-29T17:28:42.595Z,100869.72
2018-09-29T17:31:10.333Z,100872.88
2018-09-29T17:33:38.045Z,100883.47
2018-09-29T17:36:05.767Z,100884.24
2018-09-29T17:38:33.478Z,100879.75
2018-09-29T17:41:01.373Z,100888.48
2018-09-29T17:43:29.132Z,100883.91
2018-09-29T17:45:57.010Z,100876.00
2018-09-29T17:48:24.760Z,100885.09
2018-09-29T17:50:52.522Z,100886.03
2018-09-29T17:53:20.338Z,100887.42
2018-09-29T17:55:48.122Z,100895.95
2018-09-29T17:58:15.804Z,100898.09
2018-09-29T18:00:43.768Z,100901.45
2018-09-29T18:03:11.455Z,100899.37
2018-09-29T18:05:39.098Z,100895.06
2018-09-29T18:08:06.949Z,100891.13
2018-09-29T18:10:34.631Z,100888.85
2018-09-29T18:13:02.275Z,100898.38
2018-09-29T18:15:29.949Z,100896.75
2018-09-29T18:17:57.933Z,100900.95
2018-09-29T18:20:25.821Z,100908.16
2018-09-29T18:22:53.725Z,100900.18
2018-09-29T18:25:21.762Z,100911.78
2018-09-29T18:27:49.966Z,100911.20
2018-09-29T18:30:17.687Z,100902.84
2018-09-29T18:32:45.564Z,100904.13
2018-09-29T18:35:13.284Z,100899.77
2018-09-29T18:37:41.379Z,100898.34
2018-09-29T18:40:09.247Z,100894.91
2018-09-29T18:42:37.044Z,100898.34
2018-09-29T18:45:05.026Z,100895.53
2018-09-29T18:47:33.003Z,100888.48
2018-09-29T18:50:00.953Z,100887.59
2018-09-29T18:52:28.889Z,100889.59
2018-09-29T18:54:57.901Z,100892.85
2018-09-29T18:57:25.710Z,100898.42
2018-09-29T18:59:53.569Z,100896.19
2018-09-29T19:02:21.287Z,100886.52
2018-09-29T19:04:49.211Z,100888.83
2018-09-29T19:07:17.208Z,100889.42
2018-09-29T19:09:45.022Z,100888.33
2018-09-29T19:12:12.872Z,100884.45
2018-09-29T19:14:40.575Z,100885.90
2018-09-29T19:17:08.382Z,100888.13
2018-09-29T19:19:36.133Z,100882.05
2018-09-29T19:22:03.875Z,100875.38
2018-09-29T19:24:31.637Z,100878.98
2018-09-29T19:26:59.373Z,100881.78
2018-09-29T19:29:27.160Z,100873.74
2018-09-29T19:31:54.842Z,100870.00
2018-09-29T19:34:22.651Z,100877.00
2018-09-29T19:36:50.551Z,100863.78
2018-09-29T19:39:18.559Z,100876.61
2018-09-29T19:41:46.273Z,100878.98
2018-09-29T19:44:14.186Z,100880.08
2018-09-29T19:46:41.960Z,100880.85
2018-09-29T19:49:09.735Z,100882.87
2018-09-29T19:51:37.425Z,100884.64
2018-09-29T19:54:05.392Z,100878.24
2018-09-29T19:56:33.078Z,100876.80
2018-09-29T19:59:00.930Z,100868.95
2018-09-29T20:01:28.757Z,100865.52
2018-09-29T20:03:56.466Z,100872.41
2018-09-29T20:06:24.192Z,100873.44
2018-09-29T20:08:51.932Z,100866.12
2018-09-29T20:11:19.621Z,100866.44
2018-09-29T20:13:47.305Z,100858.52
2018-09-29T20:16:15.062Z,100861.98
2018-09-29T20:18:42.812Z,100866.69
2018-09-29T20:21:10.542Z,100863.53
2018-09-29T20:23:38.225Z,100860.70
2018-09-29T20:26:05.915Z,100857.77
2018-09-29T20:28:33.633Z,100848.72
2018-09-29T20:31:01.320Z,100848.41
2018-09-29T20:33:28.995Z,100842.79
2018-09-29T20:35:56.823Z,100841.66
2018-09-29T20:38:24.557Z,100839.04
2018-09-29T20:40:52.211Z,100840.20
2018-09-29T20:43:20.015Z,100830.34
2018-09-29T20:45:47.589Z,100830.27
2018-09-29T20:48:15.613Z,100827.20
2018-09-29T20:50:43.237Z,100827.67
2018-09-29T20:53:10.951Z,100827.34
2018-09-29T20:55:38.639Z,100829.73
2018-09-29T20:58:06.701Z,100829.34
2018-09-29T21:00:34.347Z,100821.03
2018-09-29T21:03:02.006Z,100821.03
2018-09-29T21:05:29.673Z,100817.67
2018-09-29T21:07:57.341Z,100810.63
2018-09-29T21:10:24.999Z,100801.34
2018-09-29T21:12:52.823Z,100810.02
2018-09-29T21:15:20.499Z,100807.15
2018-09-29T21:17:48.220Z,100803.40
2018-09-29T21:20:15.897Z,100799.72
2018-09-29T21:22:43.725Z,100800.37
2018-09-29T21:25:11.466Z,100793.91
2018-09-29T21:27:39.136Z,100789.22
2018-09-29T21:30:06.974Z,100788.08
2018-09-29T21:32:34.628Z,100785.98
2018-09-29T21:35:02.289Z,100790.06
2018-09-29T21:37:30.160Z,100783.15
2018-09-29T21:39:57.916Z,100783.11
2018-09-29T21:42:25.695Z,100777.05
2018-09-29T21:44:53.349Z,100770.14
2018-09-29T21:47:21.062Z,100769.52
2018-09-29T21:49:48.778Z,100769.67
2018-09-29T21:52:16.539Z,100774.99
2018-09-29T21:54:44.220Z,100766.61
2018-09-29T21:57:11.957Z,100762.83
2018-09-29T21:59:39.762Z,100760.84
2018-09-29T22:02:07.481Z,100759.37
2018-09-29T22:04:35.197Z,100757.90
2018-09-29T22:07:02.854Z,100761.98
2018-09-29T22:09:30.588Z,100758.19
2018-09-29T22:11:58.308Z,100749.89
2018-09-29T22:14:26.038Z,100747.62
2018-09-29T22:16:53.681Z,100748.75
2018-09-29T22:19:21.320Z,100745.54
2018-09-29T22:21:48.935Z,100741.78
2018-09-29T22:24:16.626Z,100733.03
2018-09-29T22:26:44.268Z,100737.66
2018-09-29T22:29:12.021Z,100733.67
2018-09-29T22:31:39.784Z,100720.98
2018-09-29T22:34:07.784Z,100723.31
2018-09-29T22:36:35.448Z,100727.52
2018-09-29T22:39:04.382Z,100722.98
2018-09-29T22:41:32.042Z,100716.17
2018-09-29T22:43:59.696Z,100711.27
2018-09-29T22:46:27.369Z,100711.87
2018-09-29T22:48:55.045Z,100714.08
2018-09-29T22:51:22.764Z,100706.27
2018-09-29T22:53:50.474Z,100708.42
2018-09-29T22:56:18.148Z,100700.61
2018-09-29T22:58:45.816Z,100690.08
2018-09-29T23:01:13.544Z,100677.79
2018-09-29T23:03:41.298Z,100679.70
2018-09-29T23:06:08.967Z,100680.45
2018-09-29T23:08:36.644Z,100680.00
2018-09-29T23:11:04.310Z,100677.16
2018-09-29T23:13:31.948Z,100668.31
2018-09-29T23:15:59.608Z,100673.77
2018-09-29T23:18:27.322Z,100676.52
2018-09-29T23:20:54.993Z,100669.89
2018-09-29T23:23:22.654Z,100662.29
2018-09-29T23:25:50.311Z,100657.66
2018-09-29T23:28:17.991Z,100652.03
2018-09-29T23:30:45.617Z,100647.94
2018-09-29T23:33:13.346Z,100653.78
2018-09-29T23:35:41.127Z,100639.59
2018-09-29T23:38:08.808Z,100639.23
2018-09-29T23:40:36.472Z,100629.52
2018-09-29T23:43:04.257Z,100628.82
2018-09-29T23:45:31.971Z,100629.27
2018-09-29T23:47:59.657Z,100627.58
2018-09-29T23:50:27.417Z,100624.45
2018-09-29T23:52:55.113Z,100621.46
2018-09-29T23:55:22.781Z,100621.13
2018-09-29T23:57:50.514Z,100624.19
